TimeEST,TemperatureF,Dew PointF,Humidity,Sea Level PressureIn,VisibilityMPH,Wind Direction,Wind SpeedMPH,Gust SpeedMPH,PrecipitationIn,Events,Conditions,WindDirDegrees,DateUTC
12:15 AM,32.5,27.9,83,30.52,10.0,Calm,Calm,-,N/A,,Clear,0,2013-01-19 05:15:00
12:35 AM,30.2,25.3,82,30.52,10.0,Calm,Calm,-,N/A,,Clear,0,2013-01-19 05:35:00
1:15 AM,28.9,24.1,82,30.52,10.0,Calm,Calm,-,N/A,,Clear,0,2013-01-19 06:15:00
1:35 AM,30.2,25.3,82,30.52,10.0,Calm,Calm,-,N/A,,Clear,0,2013-01-19 06:35:00
1:55 AM,28.6,23.7,82,30.52,10.0,Calm,Calm,-,N/A,,Clear,0,2013-01-19 06:55:00
2:15 AM,28.8,23.7,81,30.51,10.0,Calm,Calm,-,N/A,,Clear,0,2013-01-19 07:15:00
2:35 AM,27.5,22.8,83,30.51,10.0,Calm,Calm,-,N/A,,Clear,0,2013-01-19 07:35:00
2:55 AM,28.8,23.7,81,30.51,10.0,Calm,Calm,-,N/A,,Clear,0,2013-01-19 07:55:00
3:15 AM,27.5,22.8,83,30.51,10.0,Calm,Calm,-,N/A,,Clear,0,2013-01-19 08:15:00
3:35 AM,28.0,23.0,81,30.50,10.0,Calm,Calm,-,N/A,,Clear,0,2013-01-19 08:35:00
3:55 AM,27.9,23.0,82,30.50,10.0,Calm,Calm,-,N/A,,Clear,0,2013-01-19 08:55:00
4:15 AM,27.7,22.8,82,30.49,10.0,Calm,Calm,-,N/A,,Clear,0,2013-01-19 09:15:00
4:35 AM,27.5,22.8,83,30.49,10.0,Calm,Calm,-,N/A,,Clear,0,2013-01-19 09:35:00
4:55 AM,26.2,21.4,82,30.48,10.0,Calm,Calm,-,N/A,,Clear,0,2013-01-19 09:55:00
5:15 AM,27.5,22.8,83,30.48,10.0,Calm,Calm,-,N/A,,Clear,0,2013-01-19 10:15:00
5:35 AM,27.5,22.8,83,30.48,10.0,Calm,Calm,-,N/A,,Clear,0,2013-01-19 10:35:00
5:55 AM,27.5,22.8,83,30.49,10.0,Calm,Calm,-,N/A,,Clear,0,2013-01-19 10:55:00
6:15 AM,27.5,22.8,83,30.49,10.0,Calm,Calm,-,N/A,,Clear,0,2013-01-19 11:15:00
6:35 AM,27.5,22.8,83,30.49,10.0,Calm,Calm,-,N/A,,Clear,0,2013-01-19 11:35:00
6:55 AM,27.5,22.8,83,30.48,10.0,Calm,Calm,-,N/A,,Clear,0,2013-01-19 11:55:00
8:15 AM,30.2,25.2,82,30.49,10.0,Calm,Calm,-,N/A,,Clear,0,2013-01-19 13:15:00
8:55 AM,34.2,29.3,82,30.50,10.0,Calm,Calm,-,N/A,,Clear,0,2013-01-19 13:55:00
9:15 AM,37.6,31.3,78,30.50,10.0,Calm,Calm,-,N/A,,Clear,0,2013-01-19 14:15:00
9:35 AM,38.5,31.6,76,30.50,10.0,Calm,Calm,-,N/A,,Clear,0,2013-01-19 14:35:00
10:35 AM,43.9,25.5,48,30.48,10.0,Calm,Calm,-,N/A,,Clear,0,2013-01-19 15:35:00
10:55 AM,45.1,22.6,41,30.47,10.0,Calm,Calm,-,N/A,,Clear,0,2013-01-19 15:55:00
11:15 AM,46.0,22.1,39,30.46,10.0,Calm,Calm,-,N/A,,Clear,0,2013-01-19 16:15:00
11:35 AM,47.3,22.6,38,30.44,10.0,Calm,Calm,-,N/A,,Clear,0,2013-01-19 16:35:00
12:15 PM,50.5,25.5,38,30.40,10.0,Calm,Calm,-,N/A,,Clear,0,2013-01-19 17:15:00
12:35 PM,52.7,25.0,34,30.38,10.0,SSW,3.5,-,N/A,,Clear,210,2013-01-19 17:35:00
12:55 PM,52.7,23.5,32,30.37,10.0,SW,3.5,-,N/A,,Clear,220,2013-01-19 17:55:00
1:15 PM,53.4,22.6,30,30.35,10.0,SSW,5.8,-,N/A,,Clear,210,2013-01-19 18:15:00
1:35 PM,57.4,25.3,29,30.34,10.0,SW,4.6,-,N/A,,Clear,220,2013-01-19 18:35:00
1:55 PM,58.1,27.9,32,30.32,10.0,SSE,5.8,-,N/A,,Clear,160,2013-01-19 18:55:00
2:15 PM,58.1,27.9,32,30.31,10.0,South,5.8,-,N/A,,Clear,170,2013-01-19 19:15:00
2:35 PM,58.1,28.8,33,30.30,10.0,South,6.9,-,N/A,,Clear,180,2013-01-19 19:35:00
2:55 PM,58.1,28.9,33,30.29,10.0,South,8.1,-,N/A,,Clear,190,2013-01-19 19:55:00
3:15 PM,58.5,29.7,33,30.28,10.0,SSW,8.1,-,N/A,,Clear,200,2013-01-19 20:15:00
3:35 PM,58.1,30.2,35,30.27,10.0,South,8.1,-,N/A,,Clear,190,2013-01-19 20:35:00
3:55 PM,58.6,31.3,36,30.27,10.0,SW,11.5,-,N/A,,Clear,230,2013-01-19 20:55:00
4:15 PM,58.1,31.3,36,30.26,10.0,SW,9.2,-,N/A,,Clear,220,2013-01-19 21:15:00
4:35 PM,58.1,30.2,35,30.26,10.0,SW,11.5,-,N/A,,Clear,230,2013-01-19 21:35:00
4:55 PM,58.1,32.7,38,30.25,10.0,SW,5.8,-,N/A,,Clear,230,2013-01-19 21:55:00
5:15 PM,58.1,34.9,42,30.25,10.0,SW,6.9,-,N/A,,Clear,220,2013-01-19 22:15:00
5:35 PM,56.3,35.4,46,30.25,10.0,SW,3.5,-,N/A,,Clear,220,2013-01-19 22:35:00
5:55 PM,52.7,41.0,64,30.25,10.0,Calm,Calm,-,N/A,,Clear,0,2013-01-19 22:55:00
6:15 PM,50.2,39.7,67,30.25,10.0,Calm,Calm,-,N/A,,Clear,0,2013-01-19 23:15:00
6:35 PM,47.7,37.9,69,30.25,10.0,Calm,Calm,-,N/A,,Clear,0,2013-01-19 23:35:00
6:55 PM,45.3,36.7,72,30.25,10.0,Calm,Calm,-,N/A,,Clear,0,2013-01-19 23:55:00
7:15 PM,46.0,38.1,74,30.25,10.0,Calm,Calm,-,N/A,,Clear,0,2013-01-20 00:15:00
7:35 PM,43.9,37.6,78,30.25,10.0,Calm,Calm,-,N/A,,Clear,0,2013-01-20 00:35:00
7:55 PM,43.2,37.2,80,30.26,10.0,Calm,Calm,-,N/A,,Clear,0,2013-01-20 00:55:00
8:15 PM,43.0,37.4,81,30.25,10.0,South,3.5,-,N/A,,Clear,180,2013-01-20 01:15:00
8:35 PM,44.8,38.3,78,30.25,10.0,Calm,Calm,-,N/A,,Clear,0,2013-01-20 01:35:00
8:55 PM,44.8,38.3,78,30.24,10.0,Calm,Calm,-,N/A,,Clear,0,2013-01-20 01:55:00
9:15 PM,45.0,38.3,77,30.24,10.0,Calm,Calm,-,N/A,,Clear,0,2013-01-20 02:15:00
9:35 PM,45.7,38.8,77,30.23,10.0,Calm,Calm,-,N/A,,Clear,0,2013-01-20 02:35:00
9:55 PM,46.4,39.2,76,30.23,10.0,SSW,3.5,-,N/A,,Clear,200,2013-01-20 02:55:00
10:15 PM,46.6,39.2,75,30.22,10.0,SSW,3.5,-,N/A,,Clear,210,2013-01-20 03:15:00
10:35 PM,45.9,38.7,76,30.21,10.0,South,3.5,-,N/A,,Clear,190,2013-01-20 03:35:00
10:55 PM,45.9,38.8,76,30.21,10.0,South,3.5,-,N/A,,Clear,190,2013-01-20 03:55:00
11:15 PM,45.9,39.2,78,30.20,10.0,South,3.5,-,N/A,,Clear,190,2013-01-20 04:15:00
11:35 PM,45.1,38.8,79,30.19,10.0,South,3.5,-,N/A,,Clear,180,2013-01-20 04:35:00